sensor_id;sensor_type;location;lat;lon;timestamp;P1;durP1;ratioP1;P2;durP2;ratioP2
49235;SDS011;35067;48.134;8.378;2024-02-04T00:00:38;4.73;;;2.90;;
49235;SDS011;35067;48.134;8.378;2024-02-04T00:01:39;3.57;;;2.53;;
49235;SDS011;35067;48.134;8.378;2024-02-04T00:02:40;3.15;;;2.58;;
49235;SDS011;35067;48.134;8.378;2024-02-04T00:03:41;3.37;;;2.60;;
49235;SDS011;35067;48.134;8.378;2024-02-04T00:04:41;3.77;;;2.90;;
49235;SDS011;35067;48.134;8.378;2024-02-04T00:05:42;2.67;;;2.30;;
49235;SDS011;35067;48.134;8.378;2024-02-04T00:06:43;6.20;;;2.53;;
49235;SDS011;35067;48.134;8.378;2024-02-04T00:07:43;3.43;;;2.53;;
49235;SDS011;35067;48.134;8.378;2024-02-04T00:08:44;3.33;;;2.42;;
49235;SDS011;35067;48.134;8.378;2024-02-04T00:09:45;4.50;;;2.10;;
49235;SDS011;35067;48.134;8.378;2024-02-04T00:10:46;2.37;;;2.00;;
49235;SDS011;35067;48.134;8.378;2024-02-04T00:11:46;2.30;;;2.10;;
49235;SDS011;35067;48.134;8.378;2024-02-04T00:12:47;2.43;;;2.13;;
49235;SDS011;35067;48.134;8.378;2024-02-04T00:13:48;2.97;;;2.17;;
49235;SDS011;35067;48.134;8.378;2024-02-04T00:14:48;3.80;;;2.37;;
49235;SDS011;35067;48.134;8.378;2024-02-04T00:15:49;3.40;;;2.40;;
49235;SDS011;35067;48.134;8.378;2024-02-04T00:16:52;6.15;;;2.58;;
49235;SDS011;35067;48.134;8.378;2024-02-04T00:17:53;3.30;;;2.40;;
49235;SDS011;35067;48.134;8.378;2024-02-04T00:18:54;3.20;;;2.70;;
49235;SDS011;35067;48.134;8.378;2024-02-04T00:19:54;3.10;;;2.20;;
49235;SDS011;35067;48.134;8.378;2024-02-04T00:20:56;3.20;;;2.58;;
49235;SDS011;35067;48.134;8.378;2024-02-04T00:21:57;3.33;;;2.33;;
49235;SDS011;35067;48.134;8.378;2024-02-04T00:22:58;6.77;;;3.50;;
49235;SDS011;35067;48.134;8.378;2024-02-04T00:23:58;3.30;;;2.80;;
49235;SDS011;35067;48.134;8.378;2024-02-04T00:24:59;2.97;;;2.60;;
49235;SDS011;35067;48.134;8.378;2024-02-04T00:26:05;3.67;;;2.50;;
49235;SDS011;35067;48.134;8.378;2024-02-04T00:27:05;3.93;;;2.57;;
49235;SDS011;35067;48.134;8.378;2024-02-04T00:28:06;5.43;;;2.90;;
49235;SDS011;35067;48.134;8.378;2024-02-04T00:29:07;5.97;;;2.50;;
49235;SDS011;35067;48.134;8.378;2024-02-04T00:30:07;4.53;;;2.57;;
49235;SDS011;35067;48.134;8.378;2024-02-04T00:31:08;3.40;;;2.35;;
49235;SDS011;35067;48.134;8.378;2024-02-04T00:32:09;2.63;;;1.97;;
49235;SDS011;35067;48.134;8.378;2024-02-04T00:33:10;3.63;;;2.35;;
49235;SDS011;35067;48.134;8.378;2024-02-04T00:34:11;3.17;;;2.40;;
49235;SDS011;35067;48.134;8.378;2024-02-04T00:35:12;2.87;;;2.17;;
49235;SDS011;35067;48.134;8.378;2024-02-04T00:36:12;3.37;;;2.23;;
49235;SDS011;35067;48.134;8.378;2024-02-04T00:37:13;2.80;;;2.17;;
49235;SDS011;35067;48.134;8.378;2024-02-04T00:38:14;3.70;;;2.23;;
49235;SDS011;35067;48.134;8.378;2024-02-04T00:39:14;2.70;;;2.10;;
49235;SDS011;35067;48.134;8.378;2024-02-04T00:40:15;6.80;;;2.90;;
49235;SDS011;35067;48.134;8.378;2024-02-04T00:41:16;4.43;;;2.93;;
49235;SDS011;35067;48.134;8.378;2024-02-04T00:42:16;5.13;;;3.00;;
49235;SDS011;35067;48.134;8.378;2024-02-04T00:43:17;3.73;;;2.50;;
49235;SDS011;35067;48.134;8.378;2024-02-04T00:44:18;3.40;;;2.47;;
49235;SDS011;35067;48.134;8.378;2024-02-04T00:45:19;3.67;;;2.70;;
49235;SDS011;35067;48.134;8.378;2024-02-04T00:46:19;4.13;;;2.60;;
49235;SDS011;35067;48.134;8.378;2024-02-04T00:47:20;2.90;;;2.20;;
49235;SDS011;35067;48.134;8.378;2024-02-04T00:48:21;3.53;;;2.60;;
49235;SDS011;35067;48.134;8.378;2024-02-04T00:49:21;3.73;;;2.87;;
49235;SDS011;35067;48.134;8.378;2024-02-04T00:50:22;3.93;;;2.83;;
49235;SDS011;35067;48.134;8.378;2024-02-04T00:51:23;3.57;;;2.47;;
49235;SDS011;35067;48.134;8.378;2024-02-04T00:52:24;5.07;;;2.80;;
49235;SDS011;35067;48.134;8.378;2024-02-04T00:53:24;3.80;;;2.80;;
49235;SDS011;35067;48.134;8.378;2024-02-04T00:54:27;3.15;;;2.30;;
49235;SDS011;35067;48.134;8.378;2024-02-04T00:55:27;3.23;;;2.23;;
49235;SDS011;35067;48.134;8.378;2024-02-04T00:56:28;4.40;;;2.55;;
49235;SDS011;35067;48.134;8.378;2024-02-04T00:57:29;3.70;;;2.67;;
49235;SDS011;35067;48.134;8.378;2024-02-04T00:58:30;5.10;;;3.10;;
49235;SDS011;35067;48.134;8.378;2024-02-04T00:59:31;5.33;;;2.97;;
49235;SDS011;35067;48.134;8.378;2024-02-04T01:00:31;3.90;;;2.33;;
49235;SDS011;35067;48.134;8.378;2024-02-04T01:01:32;4.10;;;2.77;;
49235;SDS011;35067;48.134;8.378;2024-02-04T01:02:33;3.00;;;2.43;;
49235;SDS011;35067;48.134;8.378;2024-02-04T01:03:34;4.28;;;2.90;;
49235;SDS011;35067;48.134;8.378;2024-02-04T01:04:34;3.90;;;2.50;;
49235;SDS011;35067;48.134;8.378;2024-02-04T01:05:35;4.47;;;3.27;;
49235;SDS011;35067;48.134;8.378;2024-02-04T01:06:36;4.60;;;3.13;;
49235;SDS011;35067;48.134;8.378;2024-02-04T01:07:37;3.42;;;2.50;;
49235;SDS011;35067;48.134;8.378;2024-02-04T01:08:38;3.47;;;3.00;;
49235;SDS011;35067;48.134;8.378;2024-02-04T01:09:38;3.17;;;2.30;;
49235;SDS011;35067;48.134;8.378;2024-02-04T01:10:39;4.67;;;2.87;;
49235;SDS011;35067;48.134;8.378;2024-02-04T01:11:40;4.70;;;2.47;;
49235;SDS011;35067;48.134;8.378;2024-02-04T01:12:40;3.30;;;2.50;;
49235;SDS011;35067;48.134;8.378;2024-02-04T01:13:41;3.13;;;2.60;;
49235;SDS011;35067;48.134;8.378;2024-02-04T01:14:42;3.03;;;2.47;;
49235;SDS011;35067;48.134;8.378;2024-02-04T01:15:43;3.57;;;2.70;;
49235;SDS011;35067;48.134;8.378;2024-02-04T01:16:44;3.80;;;2.50;;
49235;SDS011;35067;48.134;8.378;2024-02-04T01:17:44;4.30;;;2.87;;
49235;SDS011;35067;48.134;8.378;2024-02-04T01:18:45;4.07;;;3.03;;
49235;SDS011;35067;48.134;8.378;2024-02-04T01:19:45;3.57;;;2.27;;
49235;SDS011;35067;48.134;8.378;2024-02-04T01:20:46;4.03;;;2.60;;
49235;SDS011;35067;48.134;8.378;2024-02-04T01:21:47;3.13;;;2.72;;
49235;SDS011;35067;48.134;8.378;2024-02-04T01:22:48;3.77;;;2.90;;
49235;SDS011;35067;48.134;8.378;2024-02-04T01:23:49;5.67;;;3.53;;
49235;SDS011;35067;48.134;8.378;2024-02-04T01:24:49;5.20;;;3.23;;
49235;SDS011;35067;48.134;8.378;2024-02-04T01:25:50;5.80;;;2.23;;
49235;SDS011;35067;48.134;8.378;2024-02-04T01:26:51;3.50;;;2.43;;
49235;SDS011;35067;48.134;8.378;2024-02-04T01:27:51;3.60;;;2.30;;
49235;SDS011;35067;48.134;8.378;2024-02-04T01:28:52;3.10;;;2.73;;
49235;SDS011;35067;48.134;8.378;2024-02-04T01:29:52;3.07;;;2.40;;
49235;SDS011;35067;48.134;8.378;2024-02-04T01:30:53;4.40;;;2.50;;
49235;SDS011;35067;48.134;8.378;2024-02-04T01:31:54;3.30;;;2.67;;
49235;SDS011;35067;48.134;8.378;2024-02-04T01:32:54;3.67;;;2.57;;
49235;SDS011;35067;48.134;8.378;2024-02-04T01:33:55;5.17;;;3.00;;
49235;SDS011;35067;48.134;8.378;2024-02-04T01:34:56;5.15;;;3.33;;
49235;SDS011;35067;48.134;8.378;2024-02-04T01:35:57;4.90;;;3.30;;
49235;SDS011;35067;48.134;8.378;2024-02-04T01:36:58;4.28;;;2.53;;
49235;SDS011;35067;48.134;8.378;2024-02-04T01:37:59;2.40;;;2.17;;
49235;SDS011;35067;48.134;8.378;2024-02-04T01:38:59;2.73;;;2.23;;
49235;SDS011;35067;48.134;8.378;2024-02-04T01:40:00;2.50;;;2.27;;
49235;SDS011;35067;48.134;8.378;2024-02-04T01:41:01;2.53;;;2.00;;
49235;SDS011;35067;48.134;8.378;2024-02-04T01:42:01;3.00;;;1.90;;
49235;SDS011;35067;48.134;8.378;2024-02-04T01:43:02;3.50;;;2.50;;
49235;SDS011;35067;48.134;8.378;2024-02-04T01:44:03;6.20;;;2.40;;
49235;SDS011;35067;48.134;8.378;2024-02-04T01:45:04;2.33;;;1.90;;
49235;SDS011;35067;48.134;8.378;2024-02-04T01:46:05;2.35;;;2.00;;
49235;SDS011;35067;48.134;8.378;2024-02-04T01:47:06;2.53;;;2.13;;
49235;SDS011;35067;48.134;8.378;2024-02-04T01:48:07;3.00;;;2.30;;
49235;SDS011;35067;48.134;8.378;2024-02-04T01:49:08;2.80;;;2.30;;
49235;SDS011;35067;48.134;8.378;2024-02-04T01:50:09;3.67;;;2.63;;
49235;SDS011;35067;48.134;8.378;2024-02-04T01:51:10;4.97;;;2.38;;
49235;SDS011;35067;48.134;8.378;2024-02-04T01:52:14;3.85;;;2.85;;
49235;SDS011;35067;48.134;8.378;2024-02-04T01:53:15;3.35;;;2.13;;
49235;SDS011;35067;48.134;8.378;2024-02-04T01:54:17;3.58;;;2.30;;
49235;SDS011;35067;48.134;8.378;2024-02-04T01:55:18;3.13;;;1.85;;
49235;SDS011;35067;48.134;8.378;2024-02-04T01:56:19;4.73;;;2.17;;
49235;SDS011;35067;48.134;8.378;2024-02-04T01:57:21;2.55;;;2.22;;
49235;SDS011;35067;48.134;8.378;2024-02-04T01:58:22;2.30;;;1.80;;
49235;SDS011;35067;48.134;8.378;2024-02-04T01:59:23;2.83;;;2.30;;
49235;SDS011;35067;48.134;8.378;2024-02-04T02:00:30;4.55;;;2.33;;
49235;SDS011;35067;48.134;8.378;2024-02-04T02:01:31;3.35;;;2.53;;
49235;SDS011;35067;48.134;8.378;2024-02-04T02:02:33;2.55;;;2.20;;
49235;SDS011;35067;48.134;8.378;2024-02-04T02:03:38;4.28;;;2.15;;
49235;SDS011;35067;48.134;8.378;2024-02-04T02:04:40;2.95;;;2.05;;
49235;SDS011;35067;48.134;8.378;2024-02-04T02:05:40;2.13;;;1.90;;
49235;SDS011;35067;48.134;8.378;2024-02-04T02:06:41;3.33;;;2.40;;
49235;SDS011;35067;48.134;8.378;2024-02-04T02:07:43;2.50;;;2.13;;
49235;SDS011;35067;48.134;8.378;2024-02-04T02:08:45;2.92;;;1.95;;
49235;SDS011;35067;48.134;8.378;2024-02-04T02:09:47;2.80;;;2.20;;
49235;SDS011;35067;48.134;8.378;2024-02-04T02:10:48;3.80;;;2.60;;
49235;SDS011;35067;48.134;8.378;2024-02-04T02:13:09;3.25;;;2.15;;
49235;SDS011;35067;48.134;8.378;2024-02-04T02:14:18;2.72;;;2.13;;
49235;SDS011;35067;48.134;8.378;2024-02-04T02:15:25;3.65;;;2.90;;
49235;SDS011;35067;48.134;8.378;2024-02-04T02:16:31;3.45;;;2.70;;
49235;SDS011;35067;48.134;8.378;2024-02-04T02:17:35;4.28;;;2.50;;
49235;SDS011;35067;48.134;8.378;2024-02-04T02:18:50;6.50;;;3.03;;
49235;SDS011;35067;48.134;8.378;2024-02-04T02:20:02;4.70;;;2.80;;
49235;SDS011;35067;48.134;8.378;2024-02-04T02:21:26;4.80;;;2.70;;
49235;SDS011;35067;48.134;8.378;2024-02-04T02:22:49;3.72;;;2.90;;
49235;SDS011;35067;48.134;8.378;2024-02-04T02:24:43;3.17;;;2.55;;
49235;SDS011;35067;48.134;8.378;2024-02-04T02:25:31;2.85;;;2.33;;
49235;SDS011;35067;48.134;8.378;2024-02-04T02:26:32;3.40;;;2.53;;
49235;SDS011;35067;48.134;8.378;2024-02-04T02:27:34;3.53;;;2.78;;
49235;SDS011;35067;48.134;8.378;2024-02-04T02:28:34;2.93;;;2.63;;
49235;SDS011;35067;48.134;8.378;2024-02-04T02:29:35;4.00;;;2.97;;
49235;SDS011;35067;48.134;8.378;2024-02-04T02:30:36;3.43;;;2.80;;
49235;SDS011;35067;48.134;8.378;2024-02-04T02:31:37;3.43;;;2.53;;
49235;SDS011;35067;48.134;8.378;2024-02-04T02:32:39;3.67;;;2.53;;
49235;SDS011;35067;48.134;8.378;2024-02-04T02:33:40;3.00;;;2.40;;
49235;SDS011;35067;48.134;8.378;2024-02-04T02:34:40;3.73;;;2.53;;
49235;SDS011;35067;48.134;8.378;2024-02-04T02:35:42;3.63;;;2.83;;
49235;SDS011;35067;48.134;8.378;2024-02-04T02:36:50;3.45;;;2.67;;
49235;SDS011;35067;48.134;8.378;2024-02-04T02:39:30;2.67;;;1.92;;
49235;SDS011;35067;48.134;8.378;2024-02-04T02:40:45;2.72;;;2.13;;
49235;SDS011;35067;48.134;8.378;2024-02-04T02:41:54;4.53;;;2.40;;
49235;SDS011;35067;48.134;8.378;2024-02-04T02:42:57;2.72;;;2.17;;
49235;SDS011;35067;48.134;8.378;2024-02-04T02:44:02;3.33;;;2.28;;
49235;SDS011;35067;48.134;8.378;2024-02-04T02:45:05;2.05;;;1.85;;
49235;SDS011;35067;48.134;8.378;2024-02-04T02:46:07;3.58;;;2.50;;
49235;SDS011;35067;48.134;8.378;2024-02-04T02:47:08;2.63;;;2.03;;
49235;SDS011;35067;48.134;8.378;2024-02-04T02:48:10;2.97;;;1.90;;
49235;SDS011;35067;48.134;8.378;2024-02-04T02:49:11;2.55;;;1.98;;
49235;SDS011;35067;48.134;8.378;2024-02-04T02:50:13;2.03;;;1.63;;
49235;SDS011;35067;48.134;8.378;2024-02-04T02:51:14;1.83;;;1.67;;
49235;SDS011;35067;48.134;8.378;2024-02-04T02:52:14;2.47;;;1.70;;
49235;SDS011;35067;48.134;8.378;2024-02-04T02:53:15;2.63;;;1.87;;
49235;SDS011;35067;48.134;8.378;2024-02-04T02:54:18;2.53;;;1.90;;
49235;SDS011;35067;48.134;8.378;2024-02-04T02:55:19;2.63;;;1.90;;
49235;SDS011;35067;48.134;8.378;2024-02-04T02:56:20;1.50;;;1.30;;
49235;SDS011;35067;48.134;8.378;2024-02-04T02:57:21;1.57;;;1.40;;
49235;SDS011;35067;48.134;8.378;2024-02-04T02:58:22;2.27;;;1.70;;
49235;SDS011;35067;48.134;8.378;2024-02-04T02:59:22;2.10;;;1.50;;
49235;SDS011;35067;48.134;8.378;2024-02-04T03:00:23;1.83;;;1.50;;
49235;SDS011;35067;48.134;8.378;2024-02-04T03:01:24;1.93;;;1.73;;
49235;SDS011;35067;48.134;8.378;2024-02-04T03:02:25;3.40;;;1.87;;
49235;SDS011;35067;48.134;8.378;2024-02-04T03:03:25;1.90;;;1.63;;
49235;SDS011;35067;48.134;8.378;2024-02-04T03:04:26;2.83;;;1.87;;
49235;SDS011;35067;48.134;8.378;2024-02-04T03:05:26;2.83;;;2.07;;
49235;SDS011;35067;48.134;8.378;2024-02-04T03:06:27;2.33;;;1.73;;
49235;SDS011;35067;48.134;8.378;2024-02-04T03:07:28;2.43;;;1.80;;
49235;SDS011;35067;48.134;8.378;2024-02-04T03:08:28;2.50;;;2.10;;
49235;SDS011;35067;48.134;8.378;2024-02-04T03:09:29;4.20;;;1.93;;
49235;SDS011;35067;48.134;8.378;2024-02-04T03:10:30;2.33;;;1.77;;
49235;SDS011;35067;48.134;8.378;2024-02-04T03:11:30;2.47;;;1.73;;
49235;SDS011;35067;48.134;8.378;2024-02-04T03:12:31;2.87;;;2.00;;
49235;SDS011;35067;48.134;8.378;2024-02-04T03:13:32;2.60;;;1.90;;
49235;SDS011;35067;48.134;8.378;2024-02-04T03:14:32;2.53;;;2.13;;
49235;SDS011;35067;48.134;8.378;2024-02-04T03:15:33;1.80;;;1.40;;
49235;SDS011;35067;48.134;8.378;2024-02-04T03:16:34;2.30;;;1.73;;
49235;SDS011;35067;48.134;8.378;2024-02-04T03:17:34;1.93;;;1.63;;
49235;SDS011;35067;48.134;8.378;2024-02-04T03:18:35;1.83;;;1.43;;
49235;SDS011;35067;48.134;8.378;2024-02-04T03:19:38;2.53;;;1.48;;
49235;SDS011;35067;48.134;8.378;2024-02-04T03:20:39;2.20;;;1.60;;
49235;SDS011;35067;48.134;8.378;2024-02-04T03:21:40;1.77;;;1.53;;
49235;SDS011;35067;48.134;8.378;2024-02-04T03:22:40;2.43;;;1.50;;
49235;SDS011;35067;48.134;8.378;2024-02-04T03:23:41;3.23;;;1.90;;
49235;SDS011;35067;48.134;8.378;2024-02-04T03:24:43;1.45;;;1.25;;
49235;SDS011;35067;48.134;8.378;2024-02-04T03:25:44;1.50;;;1.30;;
49235;SDS011;35067;48.134;8.378;2024-02-04T03:26:44;1.70;;;1.40;;
49235;SDS011;35067;48.134;8.378;2024-02-04T03:27:45;1.93;;;1.30;;
49235;SDS011;35067;48.134;8.378;2024-02-04T03:28:46;2.70;;;1.27;;
49235;SDS011;35067;48.134;8.378;2024-02-04T03:29:46;1.70;;;1.30;;
49235;SDS011;35067;48.134;8.378;2024-02-04T03:30:47;1.60;;;1.30;;
49235;SDS011;35067;48.134;8.378;2024-02-04T03:31:48;2.83;;;1.43;;
49235;SDS011;35067;48.134;8.378;2024-02-04T03:32:49;3.10;;;1.35;;
49235;SDS011;35067;48.134;8.378;2024-02-04T03:33:50;1.77;;;1.20;;
49235;SDS011;35067;48.134;8.378;2024-02-04T03:34:51;2.60;;;1.50;;
49235;SDS011;35067;48.134;8.378;2024-02-04T03:35:52;1.50;;;1.10;;
49235;SDS011;35067;48.134;8.378;2024-02-04T03:36:52;1.07;;;0.97;;
49235;SDS011;35067;48.134;8.378;2024-02-04T03:37:53;2.50;;;1.40;;
49235;SDS011;35067;48.134;8.378;2024-02-04T03:38:54;1.40;;;1.30;;
49235;SDS011;35067;48.134;8.378;2024-02-04T03:39:54;1.20;;;1.10;;
49235;SDS011;35067;48.134;8.378;2024-02-04T03:40:55;1.37;;;1.10;;
49235;SDS011;35067;48.134;8.378;2024-02-04T03:41:56;4.87;;;1.57;;
49235;SDS011;35067;48.134;8.378;2024-02-04T03:42:57;1.83;;;1.30;;
49235;SDS011;35067;48.134;8.378;2024-02-04T03:43:57;1.70;;;1.13;;
49235;SDS011;35067;48.134;8.378;2024-02-04T03:44:58;0.90;;;0.80;;
49235;SDS011;35067;48.134;8.378;2024-02-04T03:46:01;1.30;;;1.00;;
49235;SDS011;35067;48.134;8.378;2024-02-04T03:47:02;1.27;;;1.00;;
49235;SDS011;35067;48.134;8.378;2024-02-04T03:48:03;1.58;;;1.48;;
49235;SDS011;35067;48.134;8.378;2024-02-04T03:49:04;1.30;;;1.05;;
49235;SDS011;35067;48.134;8.378;2024-02-04T03:50:09;2.17;;;1.00;;
49235;SDS011;35067;48.134;8.378;2024-02-04T03:51:16;1.60;;;1.10;;
49235;SDS011;35067;48.134;8.378;2024-02-04T03:52:18;2.60;;;1.30;;
49235;SDS011;35067;48.134;8.378;2024-02-04T03:53:18;1.23;;;1.03;;
49235;SDS011;35067;48.134;8.378;2024-02-04T03:54:21;1.75;;;1.35;;
49235;SDS011;35067;48.134;8.378;2024-02-04T03:55:21;3.87;;;1.20;;
49235;SDS011;35067;48.134;8.378;2024-02-04T03:56:22;1.17;;;0.97;;
49235;SDS011;35067;48.134;8.378;2024-02-04T03:57:23;1.30;;;1.10;;
49235;SDS011;35067;48.134;8.378;2024-02-04T03:58:23;2.00;;;1.20;;
49235;SDS011;35067;48.134;8.378;2024-02-04T03:59:29;1.95;;;1.20;;
49235;SDS011;35067;48.134;8.378;2024-02-04T04:00:30;1.70;;;0.90;;
49235;SDS011;35067;48.134;8.378;2024-02-04T04:01:30;1.30;;;1.10;;
49235;SDS011;35067;48.134;8.378;2024-02-04T04:02:31;3.57;;;1.73;;
49235;SDS011;35067;48.134;8.378;2024-02-04T04:03:32;2.23;;;1.23;;
49235;SDS011;35067;48.134;8.378;2024-02-04T04:04:33;1.20;;;1.10;;
49235;SDS011;35067;48.134;8.378;2024-02-04T04:05:33;2.10;;;1.17;;
49235;SDS011;35067;48.134;8.378;2024-02-04T04:06:34;2.57;;;1.27;;
49235;SDS011;35067;48.134;8.378;2024-02-04T04:07:34;3.90;;;1.13;;
49235;SDS011;35067;48.134;8.378;2024-02-04T04:08:35;3.47;;;1.17;;
49235;SDS011;35067;48.134;8.378;2024-02-04T04:09:37;2.13;;;1.45;;
49235;SDS011;35067;48.134;8.378;2024-02-04T04:10:37;1.43;;;1.10;;
49235;SDS011;35067;48.134;8.378;2024-02-04T04:11:39;3.13;;;1.73;;
49235;SDS011;35067;48.134;8.378;2024-02-04T04:12:39;1.83;;;1.20;;
49235;SDS011;35067;48.134;8.378;2024-02-04T04:13:40;2.47;;;1.50;;
49235;SDS011;35067;48.134;8.378;2024-02-04T04:14:41;1.77;;;1.30;;
49235;SDS011;35067;48.134;8.378;2024-02-04T04:15:42;2.27;;;1.20;;
49235;SDS011;35067;48.134;8.378;2024-02-04T04:16:42;1.80;;;1.10;;
49235;SDS011;35067;48.134;8.378;2024-02-04T04:17:43;3.87;;;1.60;;
49235;SDS011;35067;48.134;8.378;2024-02-04T04:18:44;2.33;;;1.27;;
49235;SDS011;35067;48.134;8.378;2024-02-04T04:19:44;3.37;;;1.67;;
49235;SDS011;35067;48.134;8.378;2024-02-04T04:20:45;4.03;;;1.63;;
49235;SDS011;35067;48.134;8.378;2024-02-04T04:21:46;2.83;;;1.50;;
49235;SDS011;35067;48.134;8.378;2024-02-04T04:22:46;2.07;;;1.40;;
49235;SDS011;35067;48.134;8.378;2024-02-04T04:23:47;3.37;;;1.63;;
49235;SDS011;35067;48.134;8.378;2024-02-04T04:24:48;2.83;;;1.87;;
49235;SDS011;35067;48.134;8.378;2024-02-04T04:25:48;3.37;;;1.70;;
49235;SDS011;35067;48.134;8.378;2024-02-04T04:26:49;3.30;;;1.73;;
49235;SDS011;35067;48.134;8.378;2024-02-04T04:27:50;2.67;;;1.90;;
49235;SDS011;35067;48.134;8.378;2024-02-04T04:28:50;2.63;;;1.70;;
49235;SDS011;35067;48.134;8.378;2024-02-04T04:29:51;2.07;;;1.50;;
49235;SDS011;35067;48.134;8.378;2024-02-04T04:30:52;2.87;;;1.50;;
49235;SDS011;35067;48.134;8.378;2024-02-04T04:31:52;3.77;;;1.73;;
49235;SDS011;35067;48.134;8.378;2024-02-04T04:32:53;3.83;;;1.70;;
49235;SDS011;35067;48.134;8.378;2024-02-04T04:33:54;1.52;;;1.40;;
49235;SDS011;35067;48.134;8.378;2024-02-04T04:34:55;1.70;;;1.43;;
49235;SDS011;35067;48.134;8.378;2024-02-04T04:35:56;1.60;;;1.30;;
49235;SDS011;35067;48.134;8.378;2024-02-04T04:36:56;2.77;;;1.50;;
49235;SDS011;35067;48.134;8.378;2024-02-04T04:37:57;1.73;;;1.30;;
49235;SDS011;35067;48.134;8.378;2024-02-04T04:38:58;1.77;;;1.30;;
49235;SDS011;35067;48.134;8.378;2024-02-04T04:39:59;3.33;;;1.80;;
49235;SDS011;35067;48.134;8.378;2024-02-04T04:40:59;3.30;;;1.60;;
49235;SDS011;35067;48.134;8.378;2024-02-04T04:42:00;3.43;;;1.80;;
49235;SDS011;35067;48.134;8.378;2024-02-04T04:43:01;1.93;;;1.20;;
49235;SDS011;35067;48.134;8.378;2024-02-04T04:44:01;2.13;;;1.60;;
49235;SDS011;35067;48.134;8.378;2024-02-04T04:45:03;2.97;;;1.50;;
49235;SDS011;35067;48.134;8.378;2024-02-04T04:46:04;2.65;;;1.40;;
49235;SDS011;35067;48.134;8.378;2024-02-04T04:47:04;7.07;;;1.87;;
49235;SDS011;35067;48.134;8.378;2024-02-04T04:48:05;9.07;;;1.53;;
49235;SDS011;35067;48.134;8.378;2024-02-04T04:49:07;1.90;;;1.30;;
49235;SDS011;35067;48.134;8.378;2024-02-04T04:50:09;1.73;;;1.50;;
49235;SDS011;35067;48.134;8.378;2024-02-04T04:51:12;3.03;;;1.27;;
49235;SDS011;35067;48.134;8.378;2024-02-04T04:52:13;1.27;;;1.17;;
49235;SDS011;35067;48.134;8.378;2024-02-04T04:53:14;2.33;;;1.23;;
49235;SDS011;35067;48.134;8.378;2024-02-04T04:54:14;2.07;;;1.50;;
49235;SDS011;35067;48.134;8.378;2024-02-04T04:55:15;1.57;;;1.00;;
49235;SDS011;35067;48.134;8.378;2024-02-04T04:56:16;1.83;;;1.30;;
49235;SDS011;35067;48.134;8.378;2024-02-04T04:57:17;1.67;;;1.20;;
49235;SDS011;35067;48.134;8.378;2024-02-04T04:58:17;1.60;;;1.07;;
49235;SDS011;35067;48.134;8.378;2024-02-04T04:59:18;1.83;;;1.40;;
49235;SDS011;35067;48.134;8.378;2024-02-04T05:00:19;1.73;;;1.13;;
49235;SDS011;35067;48.134;8.378;2024-02-04T05:01:19;1.27;;;1.10;;
49235;SDS011;35067;48.134;8.378;2024-02-04T05:02:20;1.67;;;1.17;;
49235;SDS011;35067;48.134;8.378;2024-02-04T05:03:21;2.10;;;0.97;;
49235;SDS011;35067;48.134;8.378;2024-02-04T05:04:22;1.10;;;1.00;;
49235;SDS011;35067;48.134;8.378;2024-02-04T05:05:25;1.02;;;0.93;;
49235;SDS011;35067;48.134;8.378;2024-02-04T05:06:25;1.87;;;1.30;;
49235;SDS011;35067;48.134;8.378;2024-02-04T05:07:26;3.50;;;1.07;;
49235;SDS011;35067;48.134;8.378;2024-02-04T05:08:27;1.30;;;0.90;;
49235;SDS011;35067;48.134;8.378;2024-02-04T05:09:28;2.70;;;1.10;;
49235;SDS011;35067;48.134;8.378;2024-02-04T05:10:28;2.37;;;1.10;;
49235;SDS011;35067;48.134;8.378;2024-02-04T05:11:29;2.37;;;1.57;;
49235;SDS011;35067;48.134;8.378;2024-02-04T05:12:30;3.43;;;1.43;;
49235;SDS011;35067;48.134;8.378;2024-02-04T05:13:32;3.25;;;1.88;;
49235;SDS011;35067;48.134;8.378;2024-02-04T05:14:33;3.87;;;1.90;;
49235;SDS011;35067;48.134;8.378;2024-02-04T05:15:34;4.00;;;1.80;;
49235;SDS011;35067;48.134;8.378;2024-02-04T05:16:35;5.30;;;1.70;;
49235;SDS011;35067;48.134;8.378;2024-02-04T05:17:36;1.33;;;1.02;;
49235;SDS011;35067;48.134;8.378;2024-02-04T05:18:37;1.73;;;1.48;;
49235;SDS011;35067;48.134;8.378;2024-02-04T05:19:38;2.47;;;1.30;;
49235;SDS011;35067;48.134;8.378;2024-02-04T05:20:41;2.25;;;1.15;;
49235;SDS011;35067;48.134;8.378;2024-02-04T05:21:43;2.85;;;1.38;;
49235;SDS011;35067;48.134;8.378;2024-02-04T05:22:44;2.50;;;1.00;;
49235;SDS011;35067;48.134;8.378;2024-02-04T05:23:44;1.30;;;1.10;;
49235;SDS011;35067;48.134;8.378;2024-02-04T05:24:45;2.53;;;1.80;;
49235;SDS011;35067;48.134;8.378;2024-02-04T05:25:46;2.43;;;1.57;;
49235;SDS011;35067;48.134;8.378;2024-02-04T05:26:46;2.23;;;1.50;;
49235;SDS011;35067;48.134;8.378;2024-02-04T05:27:47;2.63;;;1.30;;
49235;SDS011;35067;48.134;8.378;2024-02-04T05:28:48;3.07;;;1.27;;
49235;SDS011;35067;48.134;8.378;2024-02-04T05:29:48;3.50;;;1.30;;
49235;SDS011;35067;48.134;8.378;2024-02-04T05:30:49;2.20;;;1.20;;
49235;SDS011;35067;48.134;8.378;2024-02-04T05:31:50;2.77;;;1.30;;
49235;SDS011;35067;48.134;8.378;2024-02-04T05:32:50;3.20;;;1.20;;
49235;SDS011;35067;48.134;8.378;2024-02-04T05:33:52;2.90;;;1.37;;
49235;SDS011;35067;48.134;8.378;2024-02-04T05:34:53;2.70;;;1.30;;
49235;SDS011;35067;48.134;8.378;2024-02-04T05:35:54;2.23;;;1.40;;
49235;SDS011;35067;48.134;8.378;2024-02-04T05:36:54;3.00;;;1.53;;
49235;SDS011;35067;48.134;8.378;2024-02-04T05:37:55;3.90;;;1.20;;
49235;SDS011;35067;48.134;8.378;2024-02-04T05:38:56;4.67;;;1.60;;
49235;SDS011;35067;48.134;8.378;2024-02-04T05:39:56;3.57;;;1.70;;
49235;SDS011;35067;48.134;8.378;2024-02-04T05:40:57;3.33;;;1.80;;
49235;SDS011;35067;48.134;8.378;2024-02-04T05:41:58;3.57;;;1.60;;
49235;SDS011;35067;48.134;8.378;2024-02-04T05:42:59;3.00;;;1.77;;
49235;SDS011;35067;48.134;8.378;2024-02-04T05:43:59;2.90;;;1.70;;
49235;SDS011;35067;48.134;8.378;2024-02-04T05:45:00;1.93;;;1.30;;
49235;SDS011;35067;48.134;8.378;2024-02-04T05:46:01;3.27;;;1.13;;
49235;SDS011;35067;48.134;8.378;2024-02-04T05:47:01;3.13;;;1.67;;
49235;SDS011;35067;48.134;8.378;2024-02-04T05:48:02;2.57;;;1.60;;
49235;SDS011;35067;48.134;8.378;2024-02-04T05:49:03;2.38;;;1.20;;
49235;SDS011;35067;48.134;8.378;2024-02-04T05:50:05;1.83;;;0.90;;
49235;SDS011;35067;48.134;8.378;2024-02-04T05:51:06;2.42;;;1.00;;
49235;SDS011;35067;48.134;8.378;2024-02-04T05:52:07;1.40;;;1.10;;
49235;SDS011;35067;48.134;8.378;2024-02-04T05:53:08;1.20;;;0.90;;
49235;SDS011;35067;48.134;8.378;2024-02-04T05:54:08;2.17;;;1.00;;
49235;SDS011;35067;48.134;8.378;2024-02-04T05:55:10;2.93;;;1.40;;
49235;SDS011;35067;48.134;8.378;2024-02-04T05:56:11;3.42;;;1.15;;
49235;SDS011;35067;48.134;8.378;2024-02-04T05:57:11;1.77;;;1.10;;
49235;SDS011;35067;48.134;8.378;2024-02-04T05:58:12;2.07;;;1.33;;
49235;SDS011;35067;48.134;8.378;2024-02-04T05:59:14;2.40;;;1.42;;
49235;SDS011;35067;48.134;8.378;2024-02-04T06:00:16;2.05;;;1.10;;
49235;SDS011;35067;48.134;8.378;2024-02-04T06:01:17;0.80;;;0.80;;
49235;SDS011;35067;48.134;8.378;2024-02-04T06:02:17;1.07;;;0.97;;
49235;SDS011;35067;48.134;8.378;2024-02-04T06:03:18;2.27;;;1.10;;
49235;SDS011;35067;48.134;8.378;2024-02-04T06:04:19;4.10;;;1.50;;
49235;SDS011;35067;48.134;8.378;2024-02-04T06:05:19;2.17;;;0.90;;
49235;SDS011;35067;48.134;8.378;2024-02-04T06:06:20;3.27;;;1.00;;
49235;SDS011;35067;48.134;8.378;2024-02-04T06:07:21;1.50;;;1.10;;
49235;SDS011;35067;48.134;8.378;2024-02-04T06:08:21;2.20;;;1.30;;
49235;SDS011;35067;48.134;8.378;2024-02-04T06:09:22;5.00;;;1.10;;
49235;SDS011;35067;48.134;8.378;2024-02-04T06:10:23;1.60;;;1.00;;
49235;SDS011;35067;48.134;8.378;2024-02-04T06:11:23;2.47;;;1.00;;
49235;SDS011;35067;48.134;8.378;2024-02-04T06:12:24;2.13;;;1.10;;
49235;SDS011;35067;48.134;8.378;2024-02-04T06:13:25;4.33;;;1.37;;